« Back
NWS Peachtree City, Ga » Text Product » CSG Terminal Aerodrome Forecast


Printer-friendly Version
Current Version              Previous Versions:   1  2  3  4  5  6  7  8  9  

Terminal Aerodrome Forecast

170
FTUS42 KFFC 011005 AAA
TAFCSG
TAF AMD
KCSG 011005Z 0110/0206 00000KT P6SM SCT110
     FM011200 18004KT P6SM BKN015
     FM011400 21006KT P6SM OVC025
     FM011600 22008KT P6SM VCSH BKN035
     FM012000 23009KT 4SM -TSRA BKN030CB=



USA.gov is the U.S. government's official web portal to all federal, state and local government web resources and services.